Time;durP1;ratioP1;P1;durP2;ratioP2;P2;SDS_P1;SDS_P2;PMS_P1;PMS_P2;Temp;Humidity;BMP_temperature;BMP_pressure;BME280_temperature;BME280_humidity;BME280_pressure;Samples;Min_cycle;Max_cycle;Signal;HPM_P1;HPM_P2
2023/09/05 00:00:01;;;;;;;4.55;3.08;;;;;;;16.74;84.72;101882.84;5050949;28;20048;-91
2023/09/05 00:02:26;;;;;;;5.15;3.35;;;;;;;16.71;85.07;101891.72;5053212;28;20033;-90
2023/09/05 00:04:55;;;;;;;4.95;3.17;;;;;;;16.70;84.75;101890.00;5043404;28;20017;-91
2023/09/05 00:07:20;;;;;;;5.40;3.15;;;;;;;16.66;85.13;101888.38;5042998;28;20043;-90
2023/09/05 00:09:46;;;;;;;7.88;3.28;;;;;;;16.63;84.88;101891.09;5047743;28;20429;-91
2023/09/05 00:12:11;;;;;;;5.10;3.33;;;;;;;16.62;86.13;101889.38;5040146;28;20099;-91
2023/09/05 00:14:36;;;;;;;5.07;3.22;;;;;;;16.60;86.15;101893.84;5041910;28;20491;-91
2023/09/05 00:17:02;;;;;;;5.05;3.33;;;;;;;16.54;87.07;101895.78;5051090;28;20035;-90
2023/09/05 00:19:27;;;;;;;5.43;3.53;;;;;;;16.49;86.29;101895.06;5047197;28;20477;-91
2023/09/05 00:21:53;;;;;;;5.10;3.40;;;;;;;16.47;86.25;101898.66;5052348;28;20036;-90
2023/09/05 00:24:27;;;;;;;6.72;3.40;;;;;;;16.43;86.04;101899.66;5050850;28;20025;-89
2023/09/05 00:26:56;;;;;;;4.25;3.33;;;;;;;16.40;85.58;101913.75;5033354;28;20059;-91
2023/09/05 00:29:23;;;;;;;4.35;3.47;;;;;;;16.40;86.26;101916.38;5033347;28;20021;-91
2023/09/05 00:31:49;;;;;;;5.10;3.40;;;;;;;16.38;86.64;101913.81;5041920;28;20035;-91
2023/09/05 00:34:14;;;;;;;6.38;3.50;;;;;;;16.37;86.00;101913.88;5051738;28;20024;-91
2023/09/05 00:36:40;;;;;;;5.55;3.15;;;;;;;16.34;86.19;101913.97;5045570;28;20060;-91
2023/09/05 00:39:06;;;;;;;6.43;3.40;;;;;;;16.31;85.60;101914.06;5033283;28;20025;-91
2023/09/05 00:41:32;;;;;;;4.68;3.60;;;;;;;16.28;86.07;101908.91;5039899;28;20119;-91
2023/09/05 00:43:59;;;;;;;5.57;3.70;;;;;;;16.23;86.41;101915.16;5019679;28;20029;-90
2023/09/05 00:46:24;;;;;;;5.97;3.90;;;;;;;16.19;86.81;101916.19;5048573;28;20017;-91
2023/09/05 00:48:52;;;;;;;7.68;3.63;;;;;;;16.17;86.59;101918.00;5039556;28;20025;-91
2023/09/05 00:51:19;;;;;;;4.93;3.90;;;;;;;16.12;86.38;101912.03;5049931;28;20106;-90
2023/09/05 00:53:45;;;;;;;7.10;3.70;;;;;;;16.09;86.88;101920.00;5047492;28;20057;-91
2023/09/05 00:56:10;;;;;;;5.50;3.97;;;;;;;16.05;87.06;101918.41;5050066;28;20068;-91
2023/09/05 00:58:35;;;;;;;5.40;3.53;;;;;;;16.01;86.47;101912.38;5051094;28;20031;-89
2023/09/05 01:01:01;;;;;;;4.05;3.25;;;;;;;15.98;86.31;101911.59;5039208;28;20063;-90
2023/09/05 01:03:26;;;;;;;5.90;3.25;;;;;;;15.94;86.42;101910.84;5044033;28;20064;-92
2023/09/05 01:05:59;;;;;;;5.75;3.47;;;;;;;15.91;86.57;101911.78;5050251;28;20517;-90
2023/09/05 01:08:31;;;;;;;5.45;3.17;;;;;;;15.92;86.41;101918.75;5047032;28;20047;-91
2023/09/05 01:11:00;;;;;;;4.72;3.17;;;;;;;15.92;86.21;101918.75;5046065;28;20060;-91
2023/09/05 01:13:27;;;;;;;4.72;3.42;;;;;;;15.94;86.21;101916.09;5049629;28;20496;-91
2023/09/05 01:15:55;;;;;;;5.15;3.72;;;;;;;15.93;86.11;101915.22;5039119;28;20127;-91
2023/09/05 01:18:20;;;;;;;4.28;3.17;;;;;;;15.90;86.27;101909.22;5046426;28;20082;-91
2023/09/05 01:21:10;;;;;;;5.20;3.47;;;;;;;15.89;85.58;101913.59;5040955;28;20029;-90
2023/09/05 01:23:49;;;;;;;6.70;3.10;;;;;;;15.85;85.49;101912.00;5051048;28;20036;-90
2023/09/05 01:26:16;;;;;;;4.40;3.30;;;;;;;15.82;85.78;101901.56;5052391;28;20107;-90
2023/09/05 01:28:44;;;;;;;4.20;3.08;;;;;;;15.82;86.63;101905.94;5047572;28;20063;-91
2023/09/05 01:31:10;;;;;;;6.13;3.50;;;;;;;15.84;85.50;101912.00;5033179;28;20066;-90
2023/09/05 01:33:39;;;;;;;4.63;3.15;;;;;;;15.84;85.59;101904.13;5045300;28;20054;-90
2023/09/05 01:36:06;;;;;;;4.30;3.10;;;;;;;15.85;85.21;101904.13;5050203;28;20645;-90
2023/09/05 01:38:32;;;;;;;4.93;2.90;;;;;;;15.85;85.08;101895.34;5043535;28;20051;-90
2023/09/05 01:40:57;;;;;;;4.03;2.85;;;;;;;15.86;84.78;101897.97;5050590;28;20111;-91
2023/09/05 01:43:22;;;;;;;4.57;3.20;;;;;;;15.87;84.78;101894.44;5050451;28;20455;-90
2023/09/05 01:45:47;;;;;;;4.35;2.97;;;;;;;15.88;84.54;101897.91;5048718;28;20083;-89
2023/09/05 01:48:13;;;;;;;5.50;2.85;;;;;;;15.87;84.56;101899.69;5049358;28;20032;-90
2023/09/05 01:50:38;;;;;;;4.55;2.97;;;;;;;15.89;84.73;101902.25;5052233;28;20021;-91
2023/09/05 01:53:03;;;;;;;3.55;2.67;;;;;;;15.89;84.64;101897.84;5050881;28;20037;-91
2023/09/05 01:55:28;;;;;;;4.63;2.92;;;;;;;15.87;84.69;101897.06;5041857;28;20112;-90
2023/09/05 01:57:54;;;;;;;5.53;3.17;;;;;;;15.86;84.95;101903.22;5050507;28;20025;-90
2023/09/05 02:00:19;;;;;;;4.03;2.97;;;;;;;15.86;85.23;101911.09;5050838;28;20043;-91
2023/09/05 02:02:44;;;;;;;4.55;2.83;;;;;;;15.84;85.38;101904.13;5048941;28;20385;-92
2023/09/05 02:05:10;;;;;;;4.43;3.25;;;;;;;15.82;85.29;101893.69;5048782;28;20058;-90
2023/09/05 02:07:36;;;;;;;6.95;3.28;;;;;;;15.79;85.70;101912.16;5050011;28;20100;-91
2023/09/05 02:10:01;;;;;;;4.93;3.17;;;;;;;15.77;85.64;101903.47;5045971;28;20029;-91
2023/09/05 02:12:26;;;;;;;5.10;2.88;;;;;;;15.76;85.84;101906.97;5051795;28;20076;-91
2023/09/05 02:14:51;;;;;;;5.15;3.30;;;;;;;15.75;85.95;101905.25;5047632;28;20040;-91
2023/09/05 02:17:20;;;;;;;4.25;3.00;;;;;;;15.73;86.58;101907.94;5050111;28;20460;-89
2023/09/05 02:19:46;;;;;;;5.20;3.10;;;;;;;15.72;86.47;101913.22;5051751;28;20020;-91
2023/09/05 02:22:11;;;;;;;4.55;3.35;;;;;;;15.71;86.56;101911.53;5054830;28;20431;-91
2023/09/05 02:24:36;;;;;;;4.95;3.42;;;;;;;15.70;86.25;101904.56;5042999;28;20037;-91
2023/09/05 02:27:02;;;;;;;4.90;3.30;;;;;;;15.69;86.07;101908.09;5041950;28;20426;-90
2023/09/05 02:29:27;;;;;;;5.22;3.03;;;;;;;15.69;86.39;101913.34;5050022;28;20025;-91
2023/09/05 02:31:53;;;;;;;5.47;3.17;;;;;;;15.68;86.90;101914.25;5048819;28;20610;-90
2023/09/05 02:34:18;;;;;;;5.90;3.35;;;;;;;15.67;86.27;101913.38;5045530;28;20468;-90
2023/09/05 02:36:43;;;;;;;4.40;3.20;;;;;;;15.67;86.51;101912.53;5041576;28;20472;-91
2023/09/05 02:39:09;;;;;;;5.93;3.20;;;;;;;15.66;86.53;101910.81;5046919;28;20029;-89
2023/09/05 02:41:34;;;;;;;5.50;3.22;;;;;;;15.67;86.06;101907.28;5042811;28;20075;-89
2023/09/05 02:43:59;;;;;;;4.72;2.95;;;;;;;15.66;86.24;101909.03;5052147;28;20028;-89
2023/09/05 02:46:25;;;;;;;5.38;3.00;;;;;;;15.67;86.07;101900.25;5032619;28;20526;-91
2023/09/05 02:48:50;;;;;;;5.13;3.15;;;;;;;15.66;86.07;101901.16;5049989;28;20028;-91
2023/09/05 02:51:15;;;;;;;5.38;3.35;;;;;;;15.68;85.66;101901.13;5051246;28;20047;-89
2023/09/05 02:53:41;;;;;;;4.55;3.08;;;;;;;15.67;85.56;101896.78;5051967;28;20029;-91
2023/09/05 02:56:06;;;;;;;5.70;3.03;;;;;;;15.66;85.62;101892.44;5047903;28;20030;-90
2023/09/05 02:58:32;;;;;;;4.47;2.78;;;;;;;15.65;85.37;101888.94;5048086;28;20053;-90
2023/09/05 03:01:11;;;;;;;4.45;2.97;;;;;;;15.67;85.41;101896.78;5042763;28;20036;-91
2023/09/05 03:03:37;;;;;;;4.50;3.30;;;;;;;15.67;85.70;101886.28;5041527;28;20559;-89
2023/09/05 03:06:16;;;;;;;4.80;3.40;;;;;;;15.66;85.88;101895.91;5047467;28;20107;-90
2023/09/05 03:08:44;;;;;;;4.85;3.15;;;;;;;15.66;85.83;101895.91;5042485;28;20025;-91
2023/09/05 03:11:10;;;;;;;5.53;3.17;;;;;;;15.63;85.49;101889.00;5028148;28;20041;-91
2023/09/05 03:13:35;;;;;;;5.95;3.15;;;;;;;15.63;85.72;101886.38;5051251;28;20036;-91
2023/09/05 03:16:01;;;;;;;6.43;3.33;;;;;;;15.61;85.53;101876.84;5049957;28;20017;-90
2023/09/05 03:18:26;;;;;;;5.22;3.05;;;;;;;15.61;85.71;101882.09;5048456;28;20033;-90
2023/09/05 03:20:52;;;;;;;5.63;3.45;;;;;;;15.60;85.71;101878.59;5052654;28;20107;-91
2023/09/05 03:23:17;;;;;;;5.75;3.28;;;;;;;15.58;85.61;101882.19;5048489;28;20025;-89
2023/09/05 03:25:42;;;;;;;4.63;3.45;;;;;;;15.58;85.69;101879.56;5042659;28;20060;-90
2023/09/05 03:28:14;;;;;;;5.57;3.03;;;;;;;15.57;85.66;101881.31;5045793;28;20079;-90
2023/09/05 03:30:41;;;;;;;5.40;3.20;;;;;;;15.56;85.85;101887.47;5049251;28;20103;-91
2023/09/05 03:33:06;;;;;;;4.78;3.22;;;;;;;15.57;85.64;101888.34;5044945;28;20167;-89
2023/09/05 03:35:32;;;;;;;4.85;3.28;;;;;;;15.55;85.60;101877.88;5034553;28;20121;-90
2023/09/05 03:37:58;;;;;;;4.95;3.10;;;;;;;15.54;85.65;101876.16;5047161;28;20041;-91
2023/09/05 03:40:23;;;;;;;5.38;3.40;;;;;;;15.52;85.83;101872.75;5051744;28;20025;-89
2023/09/05 03:42:48;;;;;;;5.43;3.17;;;;;;;15.50;85.73;101873.66;5053391;28;20025;-90
2023/09/05 03:45:14;;;;;;;5.00;3.45;;;;;;;15.48;86.00;101876.34;5039683;28;20036;-90
2023/09/05 03:47:39;;;;;;;5.20;3.33;;;;;;;15.48;86.00;101873.72;5053709;28;20040;-90
2023/09/05 03:50:06;;;;;;;4.38;3.28;;;;;;;15.45;85.95;101872.06;5051949;28;20032;-89
2023/09/05 03:52:31;;;;;;;6.90;3.47;;;;;;;15.43;85.74;101871.25;5053980;28;20040;-90
2023/09/05 03:54:56;;;;;;;4.93;3.33;;;;;;;15.42;85.64;101868.66;5036352;28;20034;-89
2023/09/05 03:57:21;;;;;;;4.40;3.13;;;;;;;15.40;86.04;101860.84;5033988;28;20457;-89
2023/09/05 03:59:47;;;;;;;5.28;3.33;;;;;;;15.39;85.95;101864.38;5047053;28;20043;-91
2023/09/05 04:02:12;;;;;;;4.90;3.38;;;;;;;15.39;85.88;101866.13;5048631;28;20441;-90
2023/09/05 04:04:37;;;;;;;5.20;3.30;;;;;;;15.39;85.57;101866.13;5051724;28;20017;-89
2023/09/05 04:07:03;;;;;;;4.28;3.28;;;;;;;15.38;86.11;101861.78;5052991;28;20024;-90
2023/09/05 04:09:28;;;;;;;5.70;3.38;;;;;;;15.37;86.42;101862.72;5031356;28;20021;-89
2023/09/05 04:11:53;;;;;;;4.72;3.45;;;;;;;15.36;86.77;101858.38;5035348;28;20041;-91
2023/09/05 04:14:18;;;;;;;6.30;3.53;;;;;;;15.36;86.44;101861.00;5052577;28;20389;-90
2023/09/05 04:16:44;;;;;;;8.05;3.38;;;;;;;15.35;86.64;101859.28;5052364;28;20024;-90
2023/09/05 04:19:09;;;;;;;4.90;3.28;;;;;;;15.32;86.53;101860.19;5050473;28;20029;-89
2023/09/05 04:21:35;;;;;;;4.70;3.20;;;;;;;15.32;86.32;101860.19;5052187;28;20061;-89
2023/09/05 04:24:00;;;;;;;5.00;3.33;;;;;;;15.30;87.10;101860.25;5051416;28;20107;-89
2023/09/05 04:26:25;;;;;;;4.60;3.28;;;;;;;15.28;86.61;101861.22;5052563;28;20106;-88
2023/09/05 04:28:51;;;;;;;5.88;3.28;;;;;;;15.27;86.99;101860.34;5050513;28;20135;-90
2023/09/05 04:31:19;;;;;;;5.07;3.25;;;;;;;15.26;86.42;101866.47;5044943;28;20071;-91
2023/09/05 04:33:45;;;;;;;4.57;3.38;;;;;;;15.27;86.95;101867.38;5041823;28;20108;-91
2023/09/05 04:36:10;;;;;;;4.40;3.03;;;;;;;15.25;87.04;101864.75;5051485;28;20029;-90
2023/09/05 04:38:43;;;;;;;6.57;3.45;;;;;;;15.25;87.01;101861.31;5036620;28;20021;-90
2023/09/05 04:41:08;;;;;;;4.13;3.03;;;;;;;15.25;87.38;101862.16;5043379;28;20036;-90
2023/09/05 04:43:33;;;;;;;4.57;3.20;;;;;;;15.24;86.67;101863.03;5052509;28;20068;-90
2023/09/05 04:45:58;;;;;;;5.50;2.92;;;;;;;15.25;86.34;101864.75;5048426;28;20056;-90
2023/09/05 04:48:24;;;;;;;5.88;3.33;;;;;;;15.24;86.61;101865.66;5045237;28;20013;-89
2023/09/05 04:50:49;;;;;;;4.68;3.40;;;;;;;15.24;86.56;101864.81;5046265;28;20021;-89
2023/09/05 04:53:15;;;;;;;5.35;3.28;;;;;;;15.26;86.43;101865.66;5047218;28;20032;-90
2023/09/05 04:55:42;;;;;;;4.95;2.85;;;;;;;15.24;86.47;101857.81;5041374;28;20026;-90
2023/09/05 04:58:08;;;;;;;5.45;2.95;;;;;;;15.23;86.54;101850.84;5041068;28;20079;-90
2023/09/05 05:00:33;;;;;;;4.40;3.20;;;;;;;15.23;86.61;101856.09;5047109;28;20361;-90
2023/09/05 05:02:59;;;;;;;5.05;3.22;;;;;;;15.22;85.88;101850.91;5058935;28;20059;-89
2023/09/05 05:05:24;;;;;;;4.45;3.03;;;;;;;15.22;86.22;101853.53;5052849;28;20032;-89
2023/09/05 05:07:50;;;;;;;4.72;3.22;;;;;;;15.22;86.35;101850.91;5043562;28;20056;-90
2023/09/05 05:10:15;;;;;;;4.43;3.10;;;;;;;15.21;86.23;101847.41;5044069;28;20032;-90
2023/09/05 05:12:41;;;;;;;5.07;3.28;;;;;;;15.20;87.12;101856.16;5044783;28;20066;-89
2023/09/05 05:15:07;;;;;;;5.18;3.03;;;;;;;15.15;87.22;101853.69;5046117;28;20025;-90
2023/09/05 05:17:33;;;;;;;5.20;3.08;;;;;;;15.12;86.50;101852.94;5041456;28;20122;-88
2023/09/05 05:19:59;;;;;;;4.95;3.20;;;;;;;15.08;86.13;101859.16;5041250;28;20032;-90
2023/09/05 05:22:24;;;;;;;4.47;3.08;;;;;;;15.03;86.12;101854.88;5040486;28;20029;-90
2023/09/05 05:24:51;;;;;;;4.53;3.08;;;;;;;15.00;86.01;101868.09;5050007;28;20140;-89
2023/09/05 05:27:16;;;;;;;4.50;3.08;;;;;;;14.96;86.78;101861.22;5031162;28;20115;-89
2023/09/05 05:29:41;;;;;;;4.97;3.20;;;;;;;14.98;87.77;101862.03;5043283;28;20116;-90
2023/09/05 05:32:07;;;;;;;5.47;3.25;;;;;;;14.98;87.74;101867.28;5045417;28;20392;-90
2023/09/05 05:34:32;;;;;;;5.20;3.45;;;;;;;15.01;88.10;101858.47;5043257;28;20021;-90
2023/09/05 05:36:58;;;;;;;4.80;3.35;;;;;;;15.02;88.38;101858.44;5052252;28;20164;-90
2023/09/05 05:39:25;;;;;;;4.78;3.38;;;;;;;15.03;88.24;101860.13;5041980;28;20485;-90
2023/09/05 05:41:50;;;;;;;5.13;3.28;;;;;;;15.06;88.78;101858.31;5025661;28;20096;-89
2023/09/05 05:44:16;;;;;;;5.45;3.20;;;;;;;15.10;89.29;101865.22;5049698;28;20112;-90
2023/09/05 05:46:41;;;;;;;4.90;3.17;;;;;;;15.14;88.63;101861.59;5051211;28;20025;-90
2023/09/05 05:49:08;;;;;;;4.07;2.80;;;;;;;15.18;88.41;101860.63;5053882;28;20485;-89
2023/09/05 05:51:33;;;;;;;4.40;3.13;;;;;;;15.23;88.22;101861.31;5054876;28;20136;-88
2023/09/05 05:53:58;;;;;;;5.32;2.70;;;;;;;15.27;88.51;101852.47;5055201;28;20116;-89
2023/09/05 05:56:24;;;;;;;5.97;2.88;;;;;;;15.34;87.23;101853.16;5051848;28;20021;-90
2023/09/05 05:58:49;;;;;;;5.45;3.28;;;;;;;15.39;87.35;101847.75;5043811;28;20059;-89
2023/09/05 06:01:17;;;;;;;5.00;2.88;;;;;;;15.46;87.40;101851.94;5039673;28;20025;-89
2023/09/05 06:03:43;;;;;;;4.00;2.83;;;;;;;15.53;86.92;101852.59;5048709;28;20029;-89
2023/09/05 06:06:09;;;;;;;4.45;2.83;;;;;;;15.59;86.47;101858.50;5045053;28;20025;-90
2023/09/05 06:08:34;;;;;;;3.67;2.42;;;;;;;15.66;86.87;101861.81;5044815;28;20017;-90
2023/09/05 06:10:59;;;;;;;6.05;2.90;;;;;;;15.73;86.05;101865.09;5048007;28;20025;-88
2023/09/05 06:13:25;;;;;;;5.78;2.60;;;;;;;15.78;86.49;101864.06;5050741;28;20086;-90
2023/09/05 06:15:51;;;;;;;4.93;2.78;;;;;;;15.85;87.03;101866.47;5033764;28;20025;-90
2023/09/05 06:18:16;;;;;;;3.95;2.55;;;;;;;15.91;87.06;101864.56;5053480;28;20467;-89
2023/09/05 06:20:42;;;;;;;4.93;2.63;;;;;;;15.99;86.87;101852.97;5046375;28;20086;-90
2023/09/05 06:23:07;;;;;;;3.30;2.42;;;;;;;16.04;85.60;101849.28;5044469;28;20426;-90
2023/09/05 06:25:32;;;;;;;4.88;2.53;;;;;;;16.12;86.37;101856.06;5049220;28;20029;-91
2023/09/05 06:27:58;;;;;;;3.65;2.45;;;;;;;16.21;85.35;101855.75;5050528;28;20427;-90
2023/09/05 06:30:23;;;;;;;6.32;2.80;;;;;;;16.28;84.87;101853.75;5050898;28;20028;-91
2023/09/05 06:32:49;;;;;;;4.45;2.67;;;;;;;16.35;86.18;101855.28;5042523;28;20334;-90
2023/09/05 06:35:15;;;;;;;4.65;2.20;;;;;;;16.42;85.09;101853.31;5038218;28;20036;-89
2023/09/05 06:37:40;;;;;;;3.67;2.50;;;;;;;16.47;85.16;101857.47;5053491;28;20052;-91
2023/09/05 06:40:09;;;;;;;3.70;2.33;;;;;;;16.54;84.62;101856.38;5052744;28;20090;-92
2023/09/05 06:42:37;;;;;;;3.65;2.50;;;;;;;16.60;85.27;101857.06;5047898;28;20025;-93
2023/09/05 06:45:06;;;;;;;4.20;2.50;;;;;;;16.66;84.10;101862.94;5045839;28;20017;-92
2023/09/05 06:47:32;;;;;;;3.60;2.42;;;;;;;16.73;83.89;101868.88;5047384;28;20054;-93
2023/09/05 06:49:57;;;;;;;3.85;2.33;;;;;;;16.80;84.05;101859.00;5028874;28;20491;-91
2023/09/05 06:52:23;;;;;;;4.25;2.30;;;;;;;16.87;83.77;101857.00;5042323;28;20028;-90
2023/09/05 06:54:48;;;;;;;3.30;2.20;;;;;;;16.93;83.20;101854.13;5042861;28;20086;-89
2023/09/05 06:57:15;;;;;;;3.78;2.50;;;;;;;16.98;82.71;101850.47;5041364;28;20083;-87
2023/09/05 06:59:40;;;;;;;4.68;2.17;;;;;;;17.05;82.99;101853.75;5042455;28;20033;-89
2023/09/05 07:02:05;;;;;;;3.65;2.33;;;;;;;17.10;81.90;101856.19;5044055;28;20439;-89
2023/09/05 07:04:31;;;;;;;3.22;2.40;;;;;;;17.18;82.14;101853.28;5044256;28;20033;-87
2023/09/05 07:06:57;;;;;;;3.05;2.20;;;;;;;17.21;80.97;101848.75;5043810;28;20440;-90
2023/09/05 07:09:23;;;;;;;3.25;2.10;;;;;;;17.29;82.28;101851.97;5043103;28;20143;-88
2023/09/05 07:11:48;;;;;;;4.20;2.35;;;;;;;17.34;81.19;101849.16;5043982;28;20139;-88
2023/09/05 07:14:13;;;;;;;3.08;2.15;;;;;;;17.39;81.11;101847.22;5041115;28;20398;-87
2023/09/05 07:16:39;;;;;;;6.13;2.45;;;;;;;17.46;80.86;101847.81;5042985;28;20138;-88
2023/09/05 07:19:04;;;;;;;3.10;2.13;;;;;;;17.53;80.34;101837.91;5042278;28;20029;-86
2023/09/05 07:21:30;;;;;;;2.75;2.00;;;;;;;17.58;80.66;101841.22;5044234;28;20620;-85
2023/09/05 07:23:55;;;;;;;3.58;2.17;;;;;;;17.63;80.23;101844.53;5047618;28;20079;-89
2023/09/05 07:26:20;;;;;;;4.95;2.58;;;;;;;17.70;81.47;101846.00;5044272;28;22046;-88
2023/09/05 07:28:48;;;;;;;2.85;2.28;;;;;;;17.75;81.54;101844.06;5039387;28;20243;-87
2023/09/05 07:31:14;;;;;;;4.88;2.42;;;;;;;17.80;80.67;101835.97;5043069;28;20043;-88
2023/09/05 07:33:40;;;;;;;4.47;2.20;;;;;;;17.88;80.18;101838.28;5045372;28;20025;-87
2023/09/05 07:36:06;;;;;;;4.38;2.28;;;;;;;17.92;79.49;101837.25;5042859;28;20148;-90
2023/09/05 07:38:31;;;;;;;3.25;2.30;;;;;;;17.99;79.73;101837.88;5045139;28;20547;-91
2023/09/05 07:41:03;;;;;;;3.05;2.22;;;;;;;18.05;80.77;101841.13;5045102;28;20017;-91
2023/09/05 07:43:30;;;;;;;4.53;2.50;;;;;;;18.12;80.18;101838.22;5041604;28;20024;-88
2023/09/05 07:45:55;;;;;;;3.70;2.25;;;;;;;18.18;79.68;101835.34;5044049;28;20049;-89
2023/09/05 07:48:20;;;;;;;2.75;1.90;;;;;;;18.24;78.32;101836.84;5041979;28;20114;-88
2023/09/05 07:50:46;;;;;;;3.50;2.10;;;;;;;18.28;78.15;101838.44;5043577;28;20509;-89
2023/09/05 07:53:12;;;;;;;3.47;2.40;;;;;;;18.32;77.56;101826.84;5025651;28;20040;-87
2023/09/05 07:55:37;;;;;;;3.00;1.98;;;;;;;18.39;78.88;101833.56;5044747;28;20033;-89
2023/09/05 07:58:03;;;;;;;2.85;1.95;;;;;;;18.42;79.13;101825.53;5044671;28;20150;-89
2023/09/05 08:00:28;;;;;;;2.75;2.00;;;;;;;18.48;77.57;101832.31;5041855;28;20056;-90
2023/09/05 08:02:53;;;;;;;3.90;2.08;;;;;;;18.56;78.30;101832.84;5039958;28;20017;-89
2023/09/05 08:05:21;;;;;;;4.95;1.98;;;;;;;18.63;78.61;101836.06;5041459;28;20465;-89
2023/09/05 08:07:47;;;;;;;4.30;1.88;;;;;;;18.70;77.79;101837.50;5057981;28;20047;-96
2023/09/05 08:10:12;;;;;;;4.18;1.92;;;;;;;18.77;77.47;101838.09;5172643;22;20053;-91
2023/09/05 08:12:37;;;;;;;3.53;1.95;;;;;;;18.83;76.37;101835.16;5030500;28;20055;-87
2023/09/05 08:15:05;;;;;;;4.68;1.92;;;;;;;18.90;77.76;101835.75;5031931;28;20035;-90
2023/09/05 08:17:31;;;;;;;4.60;2.13;;;;;;;18.98;75.99;101838.06;5029595;28;21230;-89
2023/09/05 08:19:56;;;;;;;3.22;2.05;;;;;;;19.06;77.66;101843.84;5024596;28;20031;-90
2023/09/05 08:22:22;;;;;;;4.13;2.00;;;;;;;19.11;76.64;101841.88;5028152;28;21399;-89
2023/09/05 08:24:47;;;;;;;4.07;2.10;;;;;;;19.21;76.42;101837.03;5030010;28;20034;-89
2023/09/05 08:27:13;;;;;;;3.13;2.08;;;;;;;19.28;77.41;101832.31;5027204;28;20036;-90
2023/09/05 08:29:38;;;;;;;2.80;1.70;;;;;;;19.33;74.66;101820.63;5032406;28;20037;-88
2023/09/05 08:32:04;;;;;;;2.97;1.70;;;;;;;19.40;75.17;101829.09;5024225;28;20087;-89
2023/09/05 08:34:29;;;;;;;3.47;2.10;;;;;;;19.46;74.13;101831.47;5035381;28;20116;-89
2023/09/05 08:36:57;;;;;;;4.22;2.00;;;;;;;19.54;73.47;101829.28;5036374;28;20023;-90
2023/09/05 08:39:22;;;;;;;3.30;1.83;;;;;;;19.60;73.27;101828.13;5017751;28;20494;-89
2023/09/05 08:41:48;;;;;;;2.42;1.63;;;;;;;19.64;73.29;101827.06;5032717;28;20117;-90
2023/09/05 08:44:14;;;;;;;3.17;1.73;;;;;;;19.68;73.78;101823.34;5038861;28;20033;-90
2023/09/05 08:46:40;;;;;;;2.78;1.70;;;;;;;19.73;73.08;101825.75;5023016;28;20104;-89
2023/09/05 08:49:05;;;;;;;4.43;1.65;;;;;;;19.79;71.64;101828.13;5039446;28;20108;-89
2023/09/05 08:51:35;;;;;;;3.75;1.80;;;;;;;19.83;70.57;101828.81;5034345;28;20029;-88
2023/09/05 08:54:03;;;;;;;2.72;1.70;;;;;;;19.88;71.28;101836.53;5036866;28;20071;-90
2023/09/05 08:56:29;;;;;;;2.92;1.90;;;;;;;19.95;70.39;101846.72;5025114;28;20124;-90
2023/09/05 08:58:56;;;;;;;3.08;1.73;;;;;;;20.04;70.87;101841.91;5028626;28;20123;-89
2023/09/05 09:01:24;;;;;;;2.30;1.60;;;;;;;20.12;70.18;101840.59;5027366;28;20017;-89
2023/09/05 09:03:50;;;;;;;2.80;1.83;;;;;;;20.22;72.07;101843.63;5023651;28;20028;-90
2023/09/05 09:06:16;;;;;;;2.95;1.80;;;;;;;20.28;69.79;101845.09;5027487;28;20025;-88
2023/09/05 09:08:43;;;;;;;2.72;1.80;;;;;;;20.33;70.55;101837.78;5033089;28;20552;-89
2023/09/05 09:11:09;;;;;;;2.88;2.00;;;;;;;20.37;71.60;101834.06;5037915;28;20128;-89
2023/09/05 09:13:41;;;;;;;3.60;1.83;;;;;;;20.42;69.34;101833.81;5025571;28;20029;-89
2023/09/05 09:16:06;;;;;;;2.78;1.70;;;;;;;20.50;69.21;101836.06;5027187;28;20098;-90
2023/09/05 09:18:33;;;;;;;4.15;1.80;;;;;;;20.58;69.73;101841.81;5031516;28;20498;-89
2023/09/05 09:21:03;;;;;;;2.72;1.75;;;;;;;20.63;68.84;101842.44;5022596;28;20441;-89
2023/09/05 09:23:30;;;;;;;2.85;1.80;;;;;;;20.69;69.43;101852.66;5044830;28;20025;-89
2023/09/05 09:25:57;;;;;;;2.88;1.80;;;;;;;20.72;67.17;101851.69;5038915;28;20119;-90
2023/09/05 09:28:24;;;;;;;3.60;1.95;;;;;;;20.76;68.24;101846.16;5035904;28;20364;-89
2023/09/05 09:31:03;;;;;;;3.38;2.10;;;;;;;20.82;67.68;101860.00;5039654;28;20033;-90
2023/09/05 09:33:31;;;;;;;2.45;1.65;;;;;;;20.86;67.43;101858.88;5037919;28;20028;-89
2023/09/05 09:36:09;;;;;;;4.20;2.08;;;;;;;20.93;67.96;101852.34;5035843;28;20392;-90
2023/09/05 09:38:35;;;;;;;3.45;2.00;;;;;;;20.98;66.61;101855.59;5038440;28;20032;-89
2023/09/05 09:41:03;;;;;;;2.45;1.70;;;;;;;21.03;68.57;101853.56;5035013;28;20144;-89
2023/09/05 09:43:33;;;;;;;2.42;1.73;;;;;;;21.07;66.77;101849.81;5032144;28;20021;-89
2023/09/05 09:46:00;;;;;;;3.47;1.88;;;;;;;21.13;67.98;101853.06;5033148;28;20025;-89
2023/09/05 09:48:29;;;;;;;2.22;1.60;;;;;;;21.18;67.69;101856.31;5013323;28;20029;-90
2023/09/05 09:50:56;;;;;;;3.15;1.70;;;;;;;21.21;67.23;101861.44;5032268;28;20029;-90
2023/09/05 09:53:38;;;;;;;2.45;1.40;;;;;;;21.25;67.22;101851.56;5038681;28;20024;-89
2023/09/05 09:56:11;;;;;;;3.63;1.70;;;;;;;21.29;68.26;101856.59;5039565;28;20558;-89
2023/09/05 09:58:41;;;;;;;3.03;1.67;;;;;;;21.34;68.71;101865.13;5037523;28;20066;-89
2023/09/05 10:01:11;;;;;;;2.40;1.80;;;;;;;21.41;68.40;101856.84;5042614;28;20025;-89
2023/09/05 10:03:38;;;;;;;2.42;1.70;;;;;;;21.44;66.15;101848.72;5043270;28;20062;-90
2023/09/05 10:06:06;;;;;;;3.55;1.60;;;;;;;21.50;66.98;101861.63;5047890;28;20068;-90
2023/09/05 10:08:33;;;;;;;3.17;1.75;;;;;;;21.55;66.21;101864.84;5040862;28;20055;-90
2023/09/05 10:10:59;;;;;;;2.90;1.48;;;;;;;21.60;65.20;101856.66;5043610;28;20052;-94
2023/09/05 10:13:27;;;;;;;2.53;1.42;;;;;;;21.67;64.80;101858.91;5046269;28;20037;-91
2023/09/05 10:15:56;;;;;;;2.28;1.50;;;;;;;21.70;65.66;101852.59;5042937;28;20124;-89
2023/09/05 10:18:22;;;;;;;3.72;1.63;;;;;;;21.75;65.90;101853.19;5041077;28;20037;-88
2023/09/05 10:20:50;;;;;;;2.63;1.50;;;;;;;21.83;65.66;101852.75;5040715;28;20087;-90
2023/09/05 10:23:17;;;;;;;2.60;1.45;;;;;;;21.88;65.48;101844.53;5036018;28;20033;-88
2023/09/05 10:25:43;;;;;;;3.30;1.60;;;;;;;21.91;65.59;101837.25;5040107;28;20025;-88
2023/09/05 10:28:09;;;;;;;2.55;1.48;;;;;;;21.95;65.40;101838.78;5044345;28;20055;-88
2023/09/05 10:30:45;;;;;;;2.42;1.50;;;;;;;21.98;65.89;101837.72;5041073;28;20083;-89
2023/09/05 10:33:13;;;;;;;2.75;1.40;;;;;;;21.99;66.61;101839.44;5031418;28;20390;-88
2023/09/05 10:35:44;;;;;;;1.40;1.20;;;;;;;22.04;67.09;101833.88;5034597;28;20029;-89
2023/09/05 10:38:12;;;;;;;4.15;1.58;;;;;;;22.08;65.10;101830.09;5015972;28;20031;-87
2023/09/05 10:40:39;;;;;;;2.60;1.50;;;;;;;22.14;66.79;101835.06;5014501;28;20056;-91
2023/09/05 10:43:07;;;;;;;1.85;1.20;;;;;;;22.18;66.11;101836.59;5037716;28;20362;-90
2023/09/05 10:45:34;;;;;;;3.65;1.50;;;;;;;22.23;67.03;101829.19;5034613;28;20024;-90
2023/09/05 10:48:31;;;;;;;2.95;1.60;;;;;;;22.26;67.01;101823.72;5030739;28;20041;-91
2023/09/05 10:51:08;;;;;;;3.78;1.60;;;;;;;22.28;65.28;101818.34;5028930;28;20029;-92
2023/09/05 10:54:13;;;;;;;2.97;1.40;;;;;;;22.33;66.52;101810.09;5028756;28;20037;-91
2023/09/05 10:56:45;;;;;;;2.40;1.42;;;;;;;22.37;65.71;101816.94;5028704;28;20033;-91
2023/09/05 10:59:25;;;;;;;4.28;1.60;;;;;;;22.44;65.01;101815.63;5030930;28;20487;-92
2023/09/05 11:01:54;;;;;;;2.35;1.65;;;;;;;22.47;63.87;101812.78;5029760;28;20022;-90
2023/09/05 11:04:23;;;;;;;3.10;1.75;;;;;;;22.53;65.61;101820.38;5011193;28;20108;-89
2023/09/05 11:06:56;;;;;;;2.72;1.70;;;;;;;22.60;64.65;101818.22;5025211;28;20026;-89
2023/09/05 11:09:21;;;;;;;1.83;1.40;;;;;;;22.64;64.55;101813.56;5036877;28;20034;-90
2023/09/05 11:11:47;;;;;;;2.47;1.60;;;;;;;22.68;64.53;101809.78;5036690;28;20037;-93
2023/09/05 11:14:12;;;;;;;1.90;1.50;;;;;;;22.70;63.75;101811.38;5033768;28;20049;-90
2023/09/05 11:16:46;;;;;;;4.63;1.60;;;;;;;22.72;65.96;101804.19;5029822;28;20060;-93
2023/09/05 11:19:30;;;;;;;2.20;1.48;;;;;;;22.79;66.72;101799.34;5015202;28;20092;-90
2023/09/05 11:22:28;;;;;;;2.38;1.50;;;;;;;22.87;65.76;101807.69;5027678;28;20024;-90